createdAt,value
2019-06-20T17:49:49.389Z,65.14
2019-06-20T17:52:21.438Z,65.80
2019-06-20T17:54:53.494Z,66.46
2019-06-20T17:57:25.800Z,67.31
2019-06-20T17:59:57.774Z,67.63
2019-06-20T18:02:29.322Z,67.60
2019-06-20T18:05:01.871Z,67.37
2019-06-20T18:07:33.710Z,67.23
2019-06-20T18:10:06.222Z,66.99
2019-06-20T18:12:38.229Z,67.12
2019-06-20T18:15:11.321Z,66.76
2019-06-20T18:17:56.443Z,66.92
2019-06-20T18:20:28.443Z,66.46
2019-06-20T18:22:59.915Z,66.55
2019-06-20T18:25:34.320Z,66.17
2019-06-20T18:28:06.492Z,66.02
2019-06-20T18:30:43.109Z,65.50
2019-06-20T18:33:15.163Z,65.15
2019-06-20T18:35:46.535Z,64.85
2019-06-20T18:38:20.499Z,64.80
2019-06-20T18:40:56.810Z,64.77
2019-06-20T18:43:28.320Z,64.66
2019-06-20T18:46:02.211Z,64.67
2019-06-20T18:48:34.233Z,64.85
2019-06-20T18:51:06.310Z,64.97
2019-06-20T18:53:38.645Z,65.18
2019-06-20T18:56:10.138Z,65.39
2019-06-20T18:58:42.151Z,65.61
2019-06-20T19:01:14.156Z,66.01
2019-06-20T19:03:45.933Z,66.31
2019-06-20T19:06:17.852Z,66.45
2019-06-20T19:08:55.188Z,66.54
2019-06-20T19:11:27.512Z,66.81
2019-06-20T19:14:00.073Z,67.00
2019-06-20T19:16:31.908Z,67.14
2019-06-20T19:19:11.955Z,67.37
2019-06-20T19:22:07.716Z,67.54
2019-06-20T19:32:37.873Z,67.52
2019-06-20T19:35:22.520Z,67.40
2019-06-20T19:37:57.850Z,67.71
2019-06-20T19:40:33.461Z,67.90
2019-06-20T19:43:16.482Z,68.02
2019-06-20T19:45:55.737Z,67.97
2019-06-20T19:48:41.333Z,67.68
2019-06-20T19:51:27.654Z,67.29
2019-06-20T19:54:06.553Z,66.97
2019-06-20T19:56:49.692Z,66.87
2019-06-20T19:59:25.868Z,66.86
2019-06-20T20:02:51.764Z,66.91
2019-06-20T20:05:26.147Z,66.43
2019-06-20T20:08:09.308Z,66.46
2019-06-20T20:10:46.203Z,66.81
2019-06-20T20:13:18.768Z,67.06
2019-06-20T20:16:07.091Z,66.75
2019-06-20T20:18:43.892Z,66.92
2019-06-20T20:21:24.639Z,67.21
2019-06-20T20:24:07.633Z,67.50
2019-06-20T20:26:41.043Z,67.96
2019-06-20T20:33:04.433Z,69.22
2019-06-20T20:35:38.831Z,70.40
2019-06-20T20:38:19.205Z,71.10
2019-06-20T20:40:51.330Z,71.22
2019-06-20T20:43:23.181Z,71.04
2019-06-20T20:45:59.853Z,70.88
2019-06-20T20:48:32.446Z,70.57
2019-06-20T20:51:08.848Z,70.68
2019-06-20T20:53:41.035Z,71.35
2019-06-20T20:56:18.944Z,71.88
2019-06-20T20:59:19.647Z,72.08
2019-06-20T21:02:02.757Z,72.28
2019-06-20T21:09:23.917Z,72.65
2019-06-20T21:11:57.828Z,73.92
2019-06-20T21:14:30.576Z,73.35
2019-06-20T21:17:03.173Z,73.61
2019-06-20T21:19:42.566Z,73.94
2019-06-20T21:22:14.887Z,74.00
2019-06-20T21:24:55.759Z,74.04
2019-06-20T21:27:31.942Z,74.05
2019-06-20T21:30:05.489Z,73.95
2019-06-20T21:32:37.666Z,73.44
2019-06-20T21:35:12.291Z,73.43
2019-06-20T21:37:44.175Z,73.66
2019-06-20T21:40:19.692Z,74.19
2019-06-20T21:42:57.415Z,73.56
2019-06-20T21:45:29.378Z,73.84
2019-06-20T21:48:01.459Z,73.96
2019-06-20T21:50:33.668Z,73.90
2019-06-20T21:53:06.077Z,74.63
2019-06-20T21:55:42.752Z,74.88
2019-06-20T21:58:15.405Z,74.66
2019-06-20T22:00:56.198Z,74.83
2019-06-20T22:03:30.172Z,75.20
2019-06-20T22:06:05.116Z,75.40
2019-06-20T22:08:40.521Z,75.38
2019-06-20T22:11:12.913Z,75.65
2019-06-20T22:13:47.272Z,76.12
2019-06-20T22:16:20.160Z,76.15
2019-06-20T22:18:51.822Z,76.31
2019-06-20T22:21:39.627Z,76.28
2019-06-20T22:24:34.668Z,76.72
2019-06-20T22:27:22.199Z,76.41
2019-06-20T22:30:07.254Z,76.46
2019-06-20T22:32:44.859Z,76.95
2019-06-20T22:35:25.615Z,76.68
2019-06-20T22:38:18.406Z,76.92
2019-06-20T22:40:54.087Z,77.07
2019-06-20T22:43:58.627Z,76.82
2019-06-20T22:46:47.444Z,76.69
2019-06-20T22:49:18.768Z,76.35
2019-06-20T22:52:13.234Z,76.47
2019-06-20T22:54:41.915Z,76.77
2019-06-20T23:00:36.413Z,77.03
2019-06-20T23:03:28.280Z,76.92
2019-06-20T23:06:03.182Z,77.11
2019-06-20T23:09:01.634Z,77.08
2019-06-20T23:12:39.973Z,77.46
2019-06-20T23:15:43.792Z,77.54
2019-06-20T23:26:38.337Z,77.26
2019-06-20T23:29:37.673Z,77.46
2019-06-20T23:32:11.956Z,78.89
2019-06-20T23:34:44.718Z,78.75
2019-06-20T23:37:19.177Z,79.13
2019-06-20T23:39:53.447Z,78.76
2019-06-20T23:42:26.186Z,79.60
2019-06-20T23:44:58.586Z,79.73
2019-06-20T23:47:32.751Z,79.78
2019-06-20T23:50:04.775Z,80.35
2019-06-20T23:52:38.649Z,79.97
2019-06-20T23:55:11.328Z,79.55
2019-06-20T23:57:43.373Z,79.69
